Historique des mesures à Cassis (13260), France
Quotidien Résumé Fevrier 3, 2018 Unités:  Métrique/US    US   Métrique
« Précédent (Jour)
Suivant (Jour) »
Quotidien Hebdomadaire Mensuel Annuel Période au choix
  Maximum: Minimum: Moyenne:
Température: 32 °F /  TemperatureC °C 41.2 °F /  5.1 °C 43.7 °F /  6.5 °C
Point de rosée: 32 °F /  DewpointC °C 26.2 °F /  -3.2 °C 29.1 °F /  -1.6 °C
Humidité: Humidity % 45 % 53 %
Vitesse du vent: WindSpeedKMH mph /  0 km/h - 17.8 mph /  28.6 km/h
Rafales: WindSpeedGustKMH mph /  0 km/h - -
Vent:- - WSW
Pression: 0 in /  PressurehPa hPa 29.5 in /  997.5 hPa -
Précipitations: 0.0 in /  0 mm    
Historical Graphs
 
 
Mesures pour : Fevrier 3, 2018
Heure Temperature Point de rosée Pression Vent Vitesse du vent Rafales Humidité Pluie (par heure)
32 °F /  TemperatureC °C 32 °F /  DewpointC °C 0 in /  PressurehPa hPa Calm     Humidity % HourlyPrecipMM in /  0 mm
00:12 43 °F /  6.1 °C 29.1 °F /  -1.6 °C 29.5 in /  999.2 hPa North 13.4 mph /  21.6 km/h 14.0 mph /  22.5 km/h 58 % 0.0 in /  0 mm
01:12 42.4 °F /  5.8 °C 29.5 °F /  -1.4 °C 29.5 in /  998.9 hPa NW 14.8 mph /  23.8 km/h 23.0 mph /  37 km/h 60 % 0.0 in /  0 mm
02:12 42.1 °F /  5.6 °C 28.8 °F /  -1.8 °C 29.5 in /  998.5 hPa North 5.5 mph /  8.9 km/h 22.7 mph /  36.5 km/h 59 % 0.0 in /  0 mm
03:12 41.9 °F /  5.5 °C 28 °F /  -2.2 °C 29.5 in /  997.5 hPa NNW 18.7 mph /  30.1 km/h 25.6 mph /  41.2 km/h 58 % 0.0 in /  0 mm
04:12 41.5 °F /  5.3 °C 27.3 °F /  -2.6 °C 29.5 in /  997.9 hPa NW 25.3 mph /  40.7 km/h 25.3 mph /  40.7 km/h 57 % 0.0 in /  0 mm
05:12 41.5 °F /  5.3 °C 27.3 °F /  -2.6 °C 29.5 in /  997.9 hPa WNW 21.2 mph /  34.1 km/h 32.3 mph /  52 km/h 57 % 0.0 in /  0 mm
06:12 41.2 °F /  5.1 °C 28.4 °F /  -2.0 °C 29.5 in /  998.5 hPa WNW 31.7 mph /  51 km/h 31.7 mph /  51 km/h 60 % 0.0 in /  0 mm
07:12 41.2 °F /  5.1 °C 29.1 °F /  -1.6 °C 29.5 in /  999.2 hPa NW 34.9 mph /  56.2 km/h 47.1 mph /  75.8 km/h 62 % 0.0 in /  0 mm
08:12 41.2 °F /  5.1 °C 30.4 °F /  -0.9 °C 29.5 in /  999.9 hPa NNW 22.4 mph /  36 km/h 22.4 mph /  36 km/h 65 % 0.0 in /  0 mm
09:12 42.1 °F /  5.6 °C 31.1 °F /  -0.5 °C 29.6 in /  1000.9 hPa NW 17.7 mph /  28.5 km/h 28.5 mph /  45.9 km/h 65 % 0.0 in /  0 mm
10:12 43 °F /  6.1 °C 31.6 °F /  -0.2 °C 29.6 in /  1000.9 hPa NNW 19.5 mph /  31.4 km/h 21.9 mph /  35.2 km/h 64 % 0.0 in /  0 mm
11:12 44.8 °F /  7.1 °C 31.8 °F /  -0.1 °C 29.6 in /  1001.2 hPa NW 20.6 mph /  33.2 km/h 24.5 mph /  39.4 km/h 60 % 0.0 in /  0 mm
12:12 46.9 °F /  8.3 °C 32.4 °F /  0.2 °C 29.6 in /  1001.6 hPa NW 21.6 mph /  34.8 km/h 21.6 mph /  34.8 km/h 57 % 0.0 in /  0 mm
13:12 48 °F /  8.9 °C 32.2 °F /  0.1 °C 29.6 in /  1001.2 hPa NNE 14.8 mph /  23.8 km/h 14.8 mph /  23.8 km/h 54 % 0.0 in /  0 mm
14:12 48 °F /  8.9 °C 30.2 °F /  -1.0 °C 29.6 in /  1001.2 hPa NNW 22.4 mph /  36 km/h 42.5 mph /  68.4 km/h 50 % 0.0 in /  0 mm
15:12 48.6 °F /  9.2 °C 29.7 °F /  -1.3 °C 29.6 in /  1001.6 hPa North 10.8 mph /  17.4 km/h 27.0 mph /  43.5 km/h 48 % 0.0 in /  0 mm
16:12 47.8 °F /  8.8 °C 29.5 °F /  -1.4 °C 29.6 in /  1001.2 hPa West 20.9 mph /  33.6 km/h 22.7 mph /  36.5 km/h 49 % 0.0 in /  0 mm
17:12 47.1 °F /  8.4 °C 26.8 °F /  -2.9 °C 29.6 in /  1001.9 hPa WNW 27.7 mph /  44.6 km/h 27.7 mph /  44.6 km/h 45 % 0.0 in /  0 mm
18:12 46 °F /  7.8 °C 26.2 °F /  -3.2 °C 29.6 in /  1001.9 hPa NW 6.1 mph /  9.8 km/h 18.3 mph /  29.5 km/h 46 % 0.0 in /  0 mm
19:12 45.1 °F /  7.3 °C 26.4 °F /  -3.1 °C 29.6 in /  1002.3 hPa NW 14.8 mph /  23.8 km/h 22.7 mph /  36.5 km/h 48 % 0.0 in /  0 mm
20:12 44.4 °F /  6.9 °C 26.4 °F /  -3.1 °C 29.6 in /  1002.9 hPa NNW 19.8 mph /  31.9 km/h 19.8 mph /  31.9 km/h 49 % 0.0 in /  0 mm
21:12 44.4 °F /  6.9 °C 27 °F /  -2.8 °C 29.6 in /  1003.6 hPa North 4.0 mph /  6.4 km/h 4.0 mph /  6.4 km/h 50 % 0.0 in /  0 mm
Observations météo à CASSIS
WU-History script by Weather Underground - 1 mb